Time;durP1;ratioP1;P1;durP2;ratioP2;P2;SDS_P1;SDS_P2;PMS_P1;PMS_P2;Temp;Humidity;BMP_temperature;BMP_pressure;BME280_temperature;BME280_humidity;BME280_pressure;Samples;Min_cycle;Max_cycle;Signal;HPM_P1;HPM_P2
2023/12/15 00:00:21;;;;;;;1.80;1.60;;;;;;;-12.43;76.01;100795.00;4861821;29;20254;-59
2023/12/15 00:02:52;;;;;;;1.92;1.83;;;;;;;-12.99;75.93;100687.97;4871235;29;20152;-59
2023/12/15 00:05:22;;;;;;;5.03;1.70;;;;;;;-12.32;75.81;100794.25;4861730;29;20151;-61
2023/12/15 00:07:54;;;;;;;2.63;1.92;;;;;;;-12.20;75.69;100801.94;4871529;29;20052;-60
2023/12/15 00:10:25;;;;;;;1.98;1.50;;;;;;;-12.33;75.10;100754.69;4861767;29;20064;-60
2023/12/15 00:12:55;;;;;;;1.92;1.83;;;;;;;-11.94;75.00;100791.47;4870961;29;20076;-59
2023/12/15 00:15:26;;;;;;;6.68;1.92;;;;;;;-11.81;74.49;100794.19;4847822;29;20145;-60
2023/12/15 00:17:56;;;;;;;2.17;1.70;;;;;;;-11.69;74.20;100793.41;4852794;29;20061;-60
2023/12/15 00:20:27;;;;;;;1.95;1.60;;;;;;;-11.60;73.66;100804.25;4843349;29;20153;-59
2023/12/15 00:22:59;;;;;;;1.95;1.77;;;;;;;-11.55;72.57;100793.78;4852705;29;20053;-57
2023/12/15 00:25:29;;;;;;;4.10;1.90;;;;;;;-11.65;72.76;100765.19;4843908;29;20079;-59
2023/12/15 00:28:00;;;;;;;1.50;1.40;;;;;;;-11.35;72.51;100792.84;4852876;29;20118;-59
2023/12/15 00:30:30;;;;;;;2.53;1.85;;;;;;;-11.19;72.13;100786.47;4843635;29;20485;-59
2023/12/15 00:33:01;;;;;;;1.70;1.60;;;;;;;-11.11;71.16;100782.88;4852899;29;20053;-59
2023/12/15 00:35:31;;;;;;;1.90;1.73;;;;;;;-11.08;70.88;100763.84;4843577;29;20064;-60
2023/12/15 00:38:03;;;;;;;1.48;1.38;;;;;;;-10.97;70.66;100757.09;4853932;29;20128;-58
2023/12/15 00:40:34;;;;;;;4.05;1.67;;;;;;;-10.92;70.21;100744.81;4861457;29;20059;-60
2023/12/15 00:43:04;;;;;;;2.22;1.52;;;;;;;-10.84;69.15;100752.97;4865469;29;20579;-60
2023/12/15 00:45:35;;;;;;;4.13;2.30;;;;;;;-10.77;68.95;100740.06;4861036;29;20053;-59
2023/12/15 00:48:06;;;;;;;2.88;1.77;;;;;;;-10.93;68.96;100703.56;4869588;29;20048;-59
2023/12/15 00:50:36;;;;;;;2.65;1.80;;;;;;;-10.66;68.16;100732.53;4860876;29;20635;-59
2023/12/15 00:53:08;;;;;;;3.15;1.60;;;;;;;-10.52;68.45;100728.50;4861642;29;20061;-60
2023/12/15 00:55:39;;;;;;;2.47;1.90;;;;;;;-10.37;68.16;100732.94;4856863;29;20066;-60
2023/12/15 00:58:09;;;;;;;1.63;1.52;;;;;;;-10.22;67.53;100723.94;4865967;29;20164;-61
2023/12/15 01:00:40;;;;;;;2.22;1.75;;;;;;;-10.17;66.20;100721.75;4856768;29;20060;-60
2023/12/15 01:03:10;;;;;;;1.88;1.60;;;;;;;-10.09;66.45;100721.53;4866037;29;20547;-60
2023/12/15 01:05:41;;;;;;;4.85;1.90;;;;;;;-10.00;66.34;100742.44;4856223;29;20057;-61
2023/12/15 01:08:13;;;;;;;1.67;1.58;;;;;;;-9.86;66.48;100715.63;4865729;29;20155;-60
2023/12/15 01:10:43;;;;;;;2.92;1.88;;;;;;;-9.67;65.90;100712.75;4856587;29;20060;-60
2023/12/15 01:13:14;;;;;;;2.08;1.60;;;;;;;-9.48;65.60;100714.03;4865460;29;20157;-60
2023/12/15 01:15:45;;;;;;;1.85;1.50;;;;;;;-9.57;63.93;100705.03;4856057;29;20399;-58
2023/12/15 01:18:15;;;;;;;1.50;1.40;;;;;;;-9.50;63.83;100695.38;4870613;29;20059;-59
2023/12/15 01:20:46;;;;;;;2.33;1.70;;;;;;;-9.45;64.10;100694.06;4855680;29;20152;-58
2023/12/15 01:23:18;;;;;;;1.55;1.45;;;;;;;-9.43;62.78;100692.50;4865698;29;20085;-60
2023/12/15 01:25:49;;;;;;;1.88;1.58;;;;;;;-9.34;63.35;100693.13;4855689;29;20139;-60
2023/12/15 01:28:19;;;;;;;2.15;1.80;;;;;;;-9.27;63.06;100695.31;4863881;29;20439;-60
2023/12/15 01:30:50;;;;;;;1.80;1.52;;;;;;;-9.21;62.88;100680.56;4864583;29;20063;-60
2023/12/15 01:33:20;;;;;;;3.05;1.60;;;;;;;-9.01;62.17;100689.53;4858551;29;20067;-60
2023/12/15 01:35:51;;;;;;;2.65;1.60;;;;;;;-8.98;61.86;100673.69;4864846;29;20145;-60
2023/12/15 01:38:23;;;;;;;3.33;1.60;;;;;;;-9.13;61.28;100664.25;4855943;29;20112;-60
2023/12/15 01:40:54;;;;;;;4.85;1.63;;;;;;;-9.13;61.43;100654.13;4865541;29;20072;-60
2023/12/15 01:43:24;;;;;;;2.55;1.60;;;;;;;-9.18;61.15;100650.41;4856835;29;20415;-60
2023/12/15 01:45:55;;;;;;;1.85;1.50;;;;;;;-9.19;60.63;100637.63;4864955;29;20152;-60
2023/12/15 01:48:37;;;;;;;1.40;1.30;;;;;;;-9.60;61.03;100578.38;4854951;29;20060;-59
2023/12/15 01:51:08;;;;;;;2.55;1.58;;;;;;;-9.26;60.43;100649.00;4865247;29;20052;-60
2023/12/15 01:53:40;;;;;;;4.68;2.85;;;;;;;-9.21;61.19;100635.00;4855337;29;20125;-60
2023/12/15 01:56:10;;;;;;;4.97;1.80;;;;;;;-9.57;60.96;100575.16;4867102;29;20277;-60
2023/12/15 01:58:40;;;;;;;1.60;1.50;;;;;;;-8.97;61.11;100624.78;4856627;29;20065;-60
2023/12/15 02:01:11;;;;;;;3.45;1.85;;;;;;;-8.75;60.73;100616.97;4866282;29;20109;-60
2023/12/15 02:03:41;;;;;;;4.47;1.70;;;;;;;-8.55;60.58;100615.75;4855303;29;20048;-60
2023/12/15 02:06:12;;;;;;;3.55;1.60;;;;;;;-8.58;59.58;100605.41;4865627;29;20104;-60
2023/12/15 02:08:47;;;;;;;3.58;1.60;;;;;;;-8.75;59.98;100551.97;4856161;29;20052;-59
2023/12/15 02:11:18;;;;;;;5.00;2.00;;;;;;;-8.29;60.55;100585.28;4865763;29;20104;-60
2023/12/15 02:13:48;;;;;;;2.60;1.67;;;;;;;-8.34;59.51;100580.72;4856451;29;20096;-59
2023/12/15 02:16:19;;;;;;;5.57;1.50;;;;;;;-8.29;59.01;100565.00;4865516;29;20063;-60
2023/12/15 02:18:49;;;;;;;2.90;1.63;;;;;;;-8.40;58.36;100568.56;4865400;29;20120;-60
2023/12/15 02:21:20;;;;;;;4.43;1.70;;;;;;;-8.26;59.14;100560.16;4860508;29;20084;-60
2023/12/15 02:23:52;;;;;;;3.42;1.92;;;;;;;-8.19;58.77;100560.53;4864857;29;20061;-59
2023/12/15 02:26:22;;;;;;;2.65;1.50;;;;;;;-8.11;58.14;100565.31;4855214;29;20163;-60
2023/12/15 02:28:53;;;;;;;2.70;1.50;;;;;;;-8.16;57.69;100560.72;4866063;29;20075;-59
2023/12/15 02:31:24;;;;;;;2.88;1.52;;;;;;;-8.10;57.52;100556.06;4857250;29;20104;-60
2023/12/15 02:33:54;;;;;;;1.67;1.33;;;;;;;-7.98;57.57;100556.81;4865695;29;20143;-60
2023/12/15 02:36:26;;;;;;;1.75;1.48;;;;;;;-8.14;56.98;100541.41;4855773;29;20053;-59
2023/12/15 02:38:58;;;;;;;2.20;1.45;;;;;;;-8.54;56.81;100475.59;4865021;29;20072;-59
2023/12/15 02:41:29;;;;;;;2.88;1.60;;;;;;;-7.91;58.01;100553.88;4855278;29;20049;-59
2023/12/15 02:43:59;;;;;;;2.80;1.35;;;;;;;-7.79;57.13;100557.94;4865477;29;20067;-60
2023/12/15 02:46:30;;;;;;;1.85;1.52;;;;;;;-7.83;57.00;100560.31;4855874;29;20556;-60
2023/12/15 02:49:00;;;;;;;1.50;1.40;;;;;;;-7.83;56.90;100557.78;4865655;29;20157;-60
2023/12/15 02:51:32;;;;;;;1.65;1.55;;;;;;;-8.45;56.75;100460.09;4856043;29;20048;-60
2023/12/15 02:54:05;;;;;;;1.50;1.40;;;;;;;-7.85;56.69;100549.19;4865271;29;20140;-59
2023/12/15 02:56:36;;;;;;;1.90;1.20;;;;;;;-7.73;56.75;100553.28;4855225;29;20120;-59
2023/12/15 02:59:06;;;;;;;2.55;1.73;;;;;;;-7.53;56.58;100562.97;4864771;29;20128;-59
2023/12/15 03:01:37;;;;;;;2.50;1.70;;;;;;;-7.55;55.94;100559.44;4856037;29;20061;-60
2023/12/15 03:04:07;;;;;;;5.25;2.08;;;;;;;-7.70;55.36;100548.38;4864304;29;20071;-60
2023/12/15 03:06:38;;;;;;;2.45;1.60;;;;;;;-7.80;56.46;100544.41;4853703;29;20135;-59
2023/12/15 03:09:11;;;;;;;2.95;1.60;;;;;;;-7.85;57.08;100544.09;4865627;29;20144;-60
2023/12/15 03:11:44;;;;;;;2.42;1.70;;;;;;;-7.86;56.64;100542.38;4856164;29;20074;-59
2023/12/15 03:14:15;;;;;;;2.75;1.55;;;;;;;-7.89;56.80;100526.94;4864835;29;20143;-59
2023/12/15 03:16:45;;;;;;;2.88;1.60;;;;;;;-7.75;56.91;100549.75;4855658;29;20067;-59
2023/12/15 03:19:16;;;;;;;4.93;1.50;;;;;;;-7.83;57.21;100537.47;4865023;29;20112;-59
2023/12/15 03:21:46;;;;;;;3.33;1.50;;;;;;;-7.71;57.65;100539.00;4854753;29;20072;-59
2023/12/15 03:24:18;;;;;;;2.08;1.40;;;;;;;-7.63;57.18;100550.50;4864960;29;20080;-59
2023/12/15 03:26:49;;;;;;;3.40;2.00;;;;;;;-7.58;57.88;100549.13;4854681;29;20159;-60
2023/12/15 03:29:21;;;;;;;2.38;1.77;;;;;;;-7.33;57.92;100555.69;4862249;29;20148;-59
2023/12/15 03:31:51;;;;;;;1.77;1.40;;;;;;;-7.21;56.85;100546.25;4865495;29;20044;-60
2023/12/15 03:34:22;;;;;;;3.03;1.60;;;;;;;-7.30;56.40;100550.78;4854768;29;20076;-60
2023/12/15 03:36:52;;;;;;;3.83;1.70;;;;;;;-7.11;57.01;100553.63;4864285;29;20067;-60
2023/12/15 03:39:24;;;;;;;3.58;1.48;;;;;;;-7.06;56.07;100548.78;4853887;29;20147;-60
2023/12/15 03:41:54;;;;;;;3.67;1.58;;;;;;;-6.97;56.36;100532.41;4864070;29;20185;-60
2023/12/15 03:44:25;;;;;;;7.78;3.25;;;;;;;-6.98;56.48;100539.97;4854747;29;20056;-59
2023/12/15 03:46:56;;;;;;;4.28;2.40;;;;;;;-7.11;56.33;100523.16;4864703;29;20147;-60
2023/12/15 03:49:26;;;;;;;4.68;2.30;;;;;;;-6.87;56.91;100538.03;4855112;29;20056;-60
2023/12/15 03:51:57;;;;;;;2.83;1.48;;;;;;;-6.86;56.14;100534.69;4864155;29;20079;-61
2023/12/15 03:54:29;;;;;;;1.88;1.50;;;;;;;-6.84;56.42;100525.50;4854799;29;20132;-60
2023/12/15 03:56:59;;;;;;;2.28;1.40;;;;;;;-6.67;56.36;100522.25;4863928;29;20068;-60
2023/12/15 03:59:30;;;;;;;2.95;1.65;;;;;;;-6.59;56.17;100515.97;4853677;29;20063;-59
2023/12/15 04:02:01;;;;;;;1.40;1.27;;;;;;;-6.53;55.64;100506.13;4864040;29;20053;-60
2023/12/15 04:04:31;;;;;;;2.38;1.67;;;;;;;-6.51;55.43;100507.09;4854339;29;20060;-58
2023/12/15 04:07:02;;;;;;;3.20;1.30;;;;;;;-6.48;54.89;100501.31;4864003;29;20139;-59
2023/12/15 04:09:34;;;;;;;2.80;1.52;;;;;;;-6.54;55.19;100494.22;4854890;29;20058;-59
2023/12/15 04:12:05;;;;;;;1.95;1.30;;;;;;;-6.63;55.04;100493.69;4862413;29;20056;-59
2023/12/15 04:14:36;;;;;;;2.08;1.38;;;;;;;-6.61;56.28;100497.19;4854431;29;20084;-60
2023/12/15 04:17:06;;;;;;;2.38;1.40;;;;;;;-6.39;55.91;100495.84;4863716;29;20544;-60
2023/12/15 04:19:37;;;;;;;3.22;1.38;;;;;;;-6.27;55.03;100503.25;4855143;29;20167;-59
2023/12/15 04:22:07;;;;;;;1.52;1.30;;;;;;;-6.34;54.86;100507.13;4863369;29;20468;-59
2023/12/15 04:24:40;;;;;;;3.00;1.50;;;;;;;-6.12;54.91;100520.22;4853760;29;20059;-60
2023/12/15 04:27:10;;;;;;;3.42;1.48;;;;;;;-6.10;55.16;100518.66;4863498;29;20084;-59
2023/12/15 04:29:41;;;;;;;2.55;1.52;;;;;;;-6.26;54.33;100511.00;4854062;29;20056;-59
2023/12/15 04:32:12;;;;;;;2.78;1.60;;;;;;;-6.24;55.00;100517.03;4863566;29;20060;-59
2023/12/15 04:34:43;;;;;;;2.72;1.40;;;;;;;-6.18;55.01;100507.19;4853218;29;20076;-59
2023/12/15 04:37:14;;;;;;;5.03;1.50;;;;;;;-6.42;54.66;100513.47;4862844;29;20060;-60
2023/12/15 04:39:46;;;;;;;3.03;1.55;;;;;;;-6.55;55.02;100517.88;4852699;29;20063;-59
2023/12/15 04:42:17;;;;;;;3.80;1.38;;;;;;;-6.52;55.09;100507.84;4862852;29;20049;-59
2023/12/15 04:44:47;;;;;;;3.35;1.40;;;;;;;-6.38;56.04;100505.22;4852842;29;20132;-59
2023/12/15 04:47:18;;;;;;;1.58;1.35;;;;;;;-6.22;55.65;100523.06;4862969;29;21227;-58
2023/12/15 04:49:48;;;;;;;3.63;1.63;;;;;;;-5.98;56.69;100527.75;4854167;29;20544;-60
2023/12/15 04:52:19;;;;;;;2.10;1.33;;;;;;;-5.84;57.25;100529.34;4862442;29;20156;-59
2023/12/15 04:54:51;;;;;;;2.17;1.52;;;;;;;-5.81;56.07;100521.88;4862527;29;20136;-59
2023/12/15 04:57:23;;;;;;;3.42;1.50;;;;;;;-6.04;54.38;100517.22;4852718;29;20070;-58
2023/12/15 04:59:54;;;;;;;3.05;1.50;;;;;;;-6.58;54.09;100507.53;4862725;29;20128;-58
2023/12/15 05:02:26;;;;;;;1.67;1.50;;;;;;;-6.69;54.91;100518.75;4853012;29;20056;-59
2023/12/15 05:04:56;;;;;;;2.92;1.60;;;;;;;-6.46;56.66;100521.69;4863220;29;20060;-59
2023/12/15 05:07:27;;;;;;;1.45;1.35;;;;;;;-6.29;56.26;100531.16;4853596;29;20064;-59
2023/12/15 05:09:59;;;;;;;2.67;1.42;;;;;;;-6.29;55.89;100520.97;4862397;29;20088;-60
2023/12/15 05:12:29;;;;;;;3.40;1.42;;;;;;;-6.31;55.46;100523.44;4854372;29;20164;-59
2023/12/15 05:15:00;;;;;;;3.47;1.50;;;;;;;-6.21;55.69;100529.91;4863482;29;20052;-59
2023/12/15 05:17:30;;;;;;;5.50;1.60;;;;;;;-6.34;55.40;100533.47;4852797;29;20048;-59
2023/12/15 05:20:02;;;;;;;3.08;1.77;;;;;;;-6.46;55.51;100521.69;4865072;29;20104;-59
2023/12/15 05:22:32;;;;;;;3.22;1.60;;;;;;;-6.35;56.19;100530.81;4857210;29;20148;-59
2023/12/15 05:25:05;;;;;;;5.90;1.67;;;;;;;-6.26;56.51;100536.44;4865670;29;20066;-60
2023/12/15 05:27:35;;;;;;;2.28;1.80;;;;;;;-6.14;57.24;100510.75;4855965;29;20151;-60
2023/12/15 05:30:07;;;;;;;3.75;1.50;;;;;;;-6.23;56.79;100508.59;4864611;29;20059;-59
2023/12/15 05:32:38;;;;;;;2.53;1.65;;;;;;;-6.32;56.56;100515.72;4854965;29;20112;-60
2023/12/15 05:35:09;;;;;;;2.47;1.63;;;;;;;-6.44;55.61;100525.22;4865739;29;20155;-59
2023/12/15 05:37:39;;;;;;;4.18;1.48;;;;;;;-6.51;55.71;100514.72;4855584;29;20061;-60
2023/12/15 05:40:13;;;;;;;2.00;1.33;;;;;;;-6.67;55.71;100512.09;4865030;29;20057;-59
2023/12/15 05:42:43;;;;;;;1.85;1.38;;;;;;;-6.82;55.74;100516.31;4856011;29;20803;-59
2023/12/15 05:45:14;;;;;;;2.40;1.75;;;;;;;-6.85;56.87;100516.13;4862936;29;20092;-60
2023/12/15 05:47:44;;;;;;;2.58;1.55;;;;;;;-6.95;57.07;100520.69;4852557;29;20062;-59
2023/12/15 05:50:15;;;;;;;1.80;1.40;;;;;;;-7.07;56.75;100519.97;4862601;29;20067;-60
2023/12/15 05:52:45;;;;;;;2.13;1.52;;;;;;;-7.10;56.99;100529.09;4852485;29;20060;-60
2023/12/15 05:55:17;;;;;;;1.80;1.50;;;;;;;-7.10;57.40;100524.88;4862451;29;20897;-60
2023/12/15 05:57:48;;;;;;;4.00;1.80;;;;;;;-7.19;57.02;100524.34;4852141;29;20065;-59
2023/12/15 06:00:18;;;;;;;1.98;1.45;;;;;;;-7.25;57.11;100534.16;4862086;29;20076;-60
2023/12/15 06:02:49;;;;;;;2.25;1.40;;;;;;;-7.31;56.91;100528.69;4851731;29;20064;-60
2023/12/15 06:05:19;;;;;;;2.33;1.65;;;;;;;-7.43;57.40;100534.81;4857308;29;20049;-58
2023/12/15 06:07:50;;;;;;;2.55;1.50;;;;;;;-7.51;57.82;100545.28;4862928;29;20135;-60
2023/12/15 06:10:22;;;;;;;1.73;1.40;;;;;;;-7.58;58.17;100545.72;4856125;29;20064;-60
2023/12/15 06:12:52;;;;;;;1.77;1.63;;;;;;;-7.66;58.46;100547.75;4862243;29;20218;-60
2023/12/15 06:15:23;;;;;;;4.43;2.30;;;;;;;-7.81;58.91;100530.84;4848320;29;20064;-60
2023/12/15 06:17:53;;;;;;;2.60;1.80;;;;;;;-7.96;59.20;100519.75;4861883;29;20048;-59
2023/12/15 06:20:24;;;;;;;2.47;1.73;;;;;;;-8.07;59.58;100529.22;4854071;29;20057;-59
2023/12/15 06:22:56;;;;;;;2.30;1.40;;;;;;;-8.22;60.35;100540.06;4863570;29;20803;-60
2023/12/15 06:25:28;;;;;;;3.15;1.70;;;;;;;-8.37;61.40;100525.66;4854831;29;20063;-60
2023/12/15 06:27:59;;;;;;;3.20;1.92;;;;;;;-8.56;62.45;100527.81;4863344;29;20084;-60
2023/12/15 06:30:29;;;;;;;2.00;1.65;;;;;;;-8.76;63.58;100517.31;4855461;29;20186;-59
2023/12/15 06:33:00;;;;;;;2.28;1.77;;;;;;;-9.05;64.39;100502.75;4865018;29;20053;-60
2023/12/15 06:35:30;;;;;;;1.83;1.70;;;;;;;-9.07;65.19;100521.13;4855600;29;20076;-59
2023/12/15 06:38:01;;;;;;;3.03;2.00;;;;;;;-9.14;65.83;100510.59;4864420;29;20120;-60
2023/12/15 06:40:33;;;;;;;3.33;1.98;;;;;;;-9.22;66.33;100521.00;4856862;29;20063;-59
2023/12/15 06:43:04;;;;;;;5.22;2.53;;;;;;;-9.25;66.72;100531.81;4868612;29;20061;-59
2023/12/15 06:45:35;;;;;;;4.85;2.38;;;;;;;-9.34;67.28;100531.19;4857731;29;20049;-59
2023/12/15 06:48:05;;;;;;;3.28;1.90;;;;;;;-9.43;67.77;100510.34;4867516;29;20088;-59
2023/12/15 06:50:36;;;;;;;3.17;2.15;;;;;;;-9.32;68.50;100524.56;4855954;29;20083;-60
2023/12/15 06:53:07;;;;;;;10.15;3.63;;;;;;;-9.36;68.87;100520.97;4864618;29;20060;-59
2023/12/15 06:55:39;;;;;;;7.00;2.60;;;;;;;-9.36;69.30;100513.38;4854804;29;21056;-59
2023/12/15 06:58:09;;;;;;;10.18;3.40;;;;;;;-9.48;69.15;100526.84;4863844;29;20455;-59
2023/12/15 07:00:40;;;;;;;4.65;2.10;;;;;;;-9.60;69.37;100522.72;4855875;29;20132;-60
2023/12/15 07:03:11;;;;;;;3.50;2.40;;;;;;;-9.74;69.70;100528.47;4864203;29;20076;-59
2023/12/15 07:05:41;;;;;;;7.85;2.42;;;;;;;-10.04;69.63;100528.13;4855726;29;20534;-60
2023/12/15 07:08:12;;;;;;;5.78;2.45;;;;;;;-10.15;70.50;100523.97;4864476;29;20064;-61
2023/12/15 07:10:45;;;;;;;6.15;3.72;;;;;;;-10.32;71.10;100517.75;4856209;29;20810;-59
2023/12/15 07:13:15;;;;;;;7.82;4.47;;;;;;;-10.42;72.18;100518.75;4864864;29;20052;-59
2023/12/15 07:15:46;;;;;;;8.55;4.32;;;;;;;-10.48;72.82;100518.34;4854953;29;20164;-60
2023/12/15 07:18:17;;;;;;;6.65;4.03;;;;;;;-10.44;73.52;100525.34;4864622;29;20088;-60
2023/12/15 07:20:47;;;;;;;7.07;3.78;;;;;;;-10.52;74.03;100520.53;4854642;29;20667;-60
2023/12/15 07:23:18;;;;;;;4.85;3.22;;;;;;;-10.48;74.31;100543.59;4864190;29;20187;-60
2023/12/15 07:25:50;;;;;;;6.30;2.88;;;;;;;-10.49;74.44;100546.88;4854622;29;20055;-60
2023/12/15 07:28:20;;;;;;;3.40;2.65;;;;;;;-10.60;74.60;100542.72;4857349;29;20152;-60
2023/12/15 07:30:51;;;;;;;7.88;3.42;;;;;;;-10.67;74.86;100545.56;4863907;29;20132;-60
2023/12/15 07:33:21;;;;;;;7.38;3.55;;;;;;;-10.68;75.08;100548.88;4854809;29;20071;-58
2023/12/15 07:35:52;;;;;;;6.20;3.90;;;;;;;-10.73;75.46;100550.16;4864142;29;20127;-61
2023/12/15 07:38:22;;;;;;;7.15;3.97;;;;;;;-10.89;74.85;100554.09;4854028;29;20049;-60
2023/12/15 07:40:57;;;;;;;11.77;5.75;;;;;;;-11.14;74.50;100545.47;4862294;29;20792;-59
2023/12/15 07:43:28;;;;;;;14.15;7.75;;;;;;;-11.41;74.54;100545.16;4855546;29;20056;-61
2023/12/15 07:45:59;;;;;;;20.52;9.23;;;;;;;-11.66;75.26;100544.09;4862683;29;20060;-60
2023/12/15 07:48:29;;;;;;;13.15;6.10;;;;;;;-11.80;76.13;100538.00;4854233;29;20377;-60
2023/12/15 07:51:00;;;;;;;17.05;7.75;;;;;;;-11.90;77.06;100535.56;4863828;29;20078;-60
2023/12/15 07:53:31;;;;;;;17.83;7.50;;;;;;;-12.00;77.68;100549.97;4854004;29;20845;-60
2023/12/15 07:56:03;;;;;;;6.85;4.07;;;;;;;-11.93;79.00;100556.34;4863144;29;20071;-61
2023/12/15 07:58:33;;;;;;;3.05;2.55;;;;;;;-11.96;78.72;100551.09;4854726;29;20066;-60
2023/12/15 08:01:04;;;;;;;5.18;2.30;;;;;;;-12.00;79.27;100539.03;4864157;29;20164;-60
2023/12/15 08:03:34;;;;;;;3.45;2.30;;;;;;;-12.16;79.59;100536.94;4854013;29;20052;-60
2023/12/15 08:06:05;;;;;;;4.43;3.17;;;;;;;-12.25;79.90;100541.28;4863255;29;20052;-61
2023/12/15 08:08:35;;;;;;;6.90;3.60;;;;;;;-12.31;80.69;100551.72;4854286;29;20075;-61
2023/12/15 08:11:09;;;;;;;6.00;2.95;;;;;;;-12.44;80.99;100536.44;4864195;29;20128;-59
2023/12/15 08:13:41;;;;;;;6.00;3.33;;;;;;;-12.78;81.30;100480.88;4855032;29;20847;-60
2023/12/15 08:16:12;;;;;;;7.03;2.95;;;;;;;-12.32;81.28;100549.97;4863762;29;20147;-61
2023/12/15 08:18:43;;;;;;;4.78;3.45;;;;;;;-12.29;81.05;100569.50;4854179;29;20062;-61
2023/12/15 08:21:14;;;;;;;11.80;5.20;;;;;;;-12.40;80.99;100556.06;4863719;29;20057;-61
2023/12/15 08:23:44;;;;;;;5.18;3.50;;;;;;;-12.41;81.15;100549.25;4853529;29;20088;-61
2023/12/15 08:26:23;;;;;;;9.18;4.35;;;;;;;-12.31;81.76;100551.72;4863336;29;20072;-61
2023/12/15 08:28:54;;;;;;;22.33;8.38;;;;;;;-12.31;81.14;100556.78;4852912;29;20543;-60
2023/12/15 08:31:25;;;;;;;17.10;9.10;;;;;;;-12.32;81.32;100560.06;4853858;29;20068;-60
2023/12/15 08:33:55;;;;;;;17.88;11.07;;;;;;;-12.28;81.33;100561.16;4863426;29;20159;-60
2023/12/15 08:36:26;;;;;;;21.33;13.13;;;;;;;-12.27;81.67;100563.81;4853558;29;20055;-61
2023/12/15 08:38:57;;;;;;;20.35;12.00;;;;;;;-12.31;81.32;100566.84;4862002;29;20060;-61
2023/12/15 08:41:29;;;;;;;14.98;6.70;;;;;;;-12.41;81.40;100564.34;4853285;29;20104;-61
2023/12/15 08:43:59;;;;;;;16.13;7.60;;;;;;;-12.47;81.84;100563.88;4862956;29;20057;-60
2023/12/15 08:46:31;;;;;;;12.02;7.57;;;;;;;-12.50;82.06;100568.66;4853426;29;20056;-60
2023/12/15 08:49:01;;;;;;;16.25;10.15;;;;;;;-12.48;82.37;100572.19;4863959;29;20060;-60
2023/12/15 08:51:32;;;;;;;19.95;10.75;;;;;;;-12.53;82.32;100574.31;4853425;29;20056;-60
2023/12/15 08:54:02;;;;;;;6.78;5.50;;;;;;;-12.64;82.94;100565.91;4863088;29;20057;-60
2023/12/15 08:56:34;;;;;;;4.00;2.75;;;;;;;-12.67;83.74;100565.69;4853440;29;20052;-60
2023/12/15 08:59:05;;;;;;;3.50;2.20;;;;;;;-12.62;84.20;100564.41;4862266;29;20057;-60
2023/12/15 09:01:37;;;;;;;2.35;2.15;;;;;;;-12.58;84.18;100574.72;4853860;29;20055;-60
2023/12/15 09:04:07;;;;;;;2.75;2.20;;;;;;;-12.52;84.34;100570.19;4862206;29;20056;-60
2023/12/15 09:06:37;;;;;;;4.22;2.20;;;;;;;-13.36;83.91;100433.50;4853595;29;20106;-61
2023/12/15 09:09:14;;;;;;;3.20;2.17;;;;;;;-12.51;84.11;100572.81;4862878;29;20064;-60
2023/12/15 09:11:46;;;;;;;4.18;2.80;;;;;;;-12.50;84.21;100558.56;4852661;29;20941;-61
2023/12/15 09:14:17;;;;;;;4.10;2.33;;;;;;;-12.42;84.27;100568.53;4862526;29;20052;-61
2023/12/15 09:16:47;;;;;;;4.13;2.63;;;;;;;-12.34;83.91;100580.84;4852889;29;20819;-60
2023/12/15 09:19:18;;;;;;;7.25;4.82;;;;;;;-12.37;83.48;100586.50;4862031;29;21360;-61
2023/12/15 09:21:48;;;;;;;16.25;7.10;;;;;;;-12.45;82.96;100585.03;4852681;29;20056;-60
2023/12/15 09:24:19;;;;;;;66.53;20.15;;;;;;;-12.46;83.25;100585.78;4862866;29;20093;-60
2023/12/15 09:26:51;;;;;;;96.38;25.33;;;;;;;-12.55;82.74;100580.00;4852124;29;20093;-61
2023/12/15 09:29:22;;;;;;;44.05;13.50;;;;;;;-12.62;82.50;100589.59;4851918;29;20143;-60
2023/12/15 09:31:52;;;;;;;21.60;8.40;;;;;;;-12.66;82.56;100587.56;4862460;29;20060;-60
2023/12/15 09:34:23;;;;;;;24.40;9.55;;;;;;;-13.01;82.12;100566.22;4853080;29;20088;-60
2023/12/15 09:36:54;;;;;;;20.92;8.13;;;;;;;-13.14;82.51;100585.34;4861908;29;20135;-61
2023/12/15 09:39:24;;;;;;;9.60;4.45;;;;;;;-13.27;82.86;100593.53;4852572;29;20151;-61
2023/12/15 09:41:56;;;;;;;5.50;3.88;;;;;;;-13.39;83.11;100601.69;4861520;29;20974;-61
2023/12/15 09:44:27;;;;;;;7.38;3.42;;;;;;;-13.56;83.21;100603.66;4852218;29;20053;-61
2023/12/15 09:47:00;;;;;;;4.78;2.85;;;;;;;-13.94;83.77;100548.56;4862251;29;20156;-61
2023/12/15 09:49:34;;;;;;;11.00;6.97;;;;;;;-13.59;83.97;100592.50;4852872;29;20392;-60
2023/12/15 09:52:06;;;;;;;19.95;10.85;;;;;;;-13.59;84.19;100605.94;4862045;29;20959;-60
2023/12/15 09:54:36;;;;;;;17.13;9.68;;;;;;;-13.66;83.61;100588.56;4852500;29;20167;-61
2023/12/15 09:57:10;;;;;;;17.40;10.75;;;;;;;-13.83;83.36;100591.28;4861654;29;20071;-61
2023/12/15 09:59:42;;;;;;;22.58;12.32;;;;;;;-13.88;83.68;100597.53;4853250;29;20054;-60
2023/12/15 10:02:13;;;;;;;26.80;15.60;;;;;;;-13.89;83.88;100580.72;4862122;29;20057;-60
2023/12/15 10:04:43;;;;;;;29.27;19.00;;;;;;;-13.87;83.68;100574.19;4852175;29;20053;-61
2023/12/15 10:07:14;;;;;;;20.58;13.13;;;;;;;-13.98;83.21;100575.78;4861824;29;20105;-60
2023/12/15 10:09:44;;;;;;;19.67;9.65;;;;;;;-14.08;83.34;100574.09;4852172;29;20060;-60
2023/12/15 10:12:16;;;;;;;13.80;7.68;;;;;;;-14.04;83.73;100576.16;4861770;29;20080;-60
2023/12/15 10:14:46;;;;;;;15.95;11.18;;;;;;;-14.02;83.69;100569.63;4851824;29;20061;-61
2023/12/15 10:17:17;;;;;;;11.73;6.82;;;;;;;-14.04;83.48;100576.16;4865284;29;20072;-60
2023/12/15 10:19:48;;;;;;;6.70;4.70;;;;;;;-14.02;83.82;100569.63;4854575;29;20061;-60
2023/12/15 10:22:19;;;;;;;6.90;3.78;;;;;;;-14.06;83.67;100562.56;4865909;29;20840;-60
2023/12/15 10:24:49;;;;;;;5.75;3.70;;;;;;;-14.57;83.61;100494.66;4855708;29;20060;-60
2023/12/15 10:27:21;;;;;;;6.85;3.72;;;;;;;-14.35;83.51;100540.88;4859927;29;20143;-61
2023/12/15 10:29:52;;;;;;;6.95;3.63;;;;;;;-14.52;84.44;100473.31;4865005;29;20056;-61
2023/12/15 10:32:23;;;;;;;9.82;5.43;;;;;;;-13.82;84.85;100555.38;4855754;29;20511;-61
2023/12/15 10:34:53;;;;;;;10.80;7.22;;;;;;;-13.59;84.73;100563.19;4864828;29;20531;-60
2023/12/15 10:37:24;;;;;;;9.30;5.10;;;;;;;-13.59;84.41;100563.19;4856713;29;20056;-60
2023/12/15 10:39:55;;;;;;;8.90;4.60;;;;;;;-13.50;83.88;100563.97;4864155;29;20056;-60
2023/12/15 10:42:32;;;;;;;12.57;6.70;;;;;;;-13.67;82.50;100568.34;4855225;29;20060;-61
2023/12/15 10:45:04;;;;;;;11.95;5.88;;;;;;;-13.86;81.96;100569.28;4865225;29;20160;-61
2023/12/15 10:47:35;;;;;;;16.08;6.75;;;;;;;-14.06;81.77;100560.06;4855745;29;20652;-60
2023/12/15 10:50:08;;;;;;;14.52;6.55;;;;;;;-14.09;81.79;100572.38;4864565;29;20061;-61
2023/12/15 10:52:39;;;;;;;14.10;4.88;;;;;;;-14.22;81.25;100569.56;4856325;29;20045;-61
2023/12/15 10:55:13;;;;;;;10.60;4.75;;;;;;;-14.35;81.71;100573.50;4867975;29;20066;-61
2023/12/15 10:57:45;;;;;;;12.38;5.55;;;;;;;-14.22;82.38;100569.56;4858512;29;20710;-62
2023/12/15 11:00:18;;;;;;;9.80;5.53;;;;;;;-14.21;82.52;100566.28;4868427;29;20044;-61
2023/12/15 11:02:50;;;;;;;14.70;5.95;;;;;;;-14.18;82.46;100576.59;4858114;29;20080;-60
2023/12/15 11:05:21;;;;;;;19.73;10.05;;;;;;;-14.24;82.08;100576.06;4859637;29;20159;-61
2023/12/15 11:08:06;;;;;;;15.77;8.63;;;;;;;-14.39;81.84;100576.50;4867667;29;20059;-61
2023/12/15 11:10:37;;;;;;;13.90;7.53;;;;;;;-14.58;81.52;100588.22;4858711;29;20136;-61
2023/12/15 11:13:36;;;;;;;36.78;15.77;;;;;;;-14.76;81.45;100581.56;4867325;29;20087;-60
2023/12/15 11:16:09;;;;;;;17.92;8.98;;;;;;;-14.85;82.04;100587.56;4866471;29;20053;-61
2023/12/15 11:18:41;;;;;;;15.20;7.00;;;;;;;-15.04;82.12;100564.09;4857852;29;20125;-61
2023/12/15 11:21:13;;;;;;;7.00;4.90;;;;;;;-14.97;82.29;100586.47;4867462;29;20067;-61
2023/12/15 11:23:57;;;;;;;20.23;10.88;;;;;;;-14.97;82.39;100571.41;4857856;29;20132;-62
2023/12/15 11:26:31;;;;;;;9.60;5.15;;;;;;;-15.09;81.91;100565.31;4857124;29;20735;-61
2023/12/15 11:29:06;;;;;;;13.43;9.10;;;;;;;-15.16;82.30;100560.47;4866763;29;20060;-60
2023/12/15 11:31:40;;;;;;;12.38;5.07;;;;;;;-15.11;82.57;100566.78;4858161;29;20056;-60
2023/12/15 11:34:31;;;;;;;4.65;2.78;;;;;;;-15.43;82.42;100517.16;4866920;29;20052;-61
2023/12/15 11:37:02;;;;;;;3.15;2.85;;;;;;;-15.19;82.87;100557.72;4857662;29;20100;-60